createdAt,value
2019-05-15T00:01:42.076Z,99.90
2019-05-15T00:04:49.283Z,99.90
2019-05-15T00:07:52.682Z,99.90
2019-05-15T00:20:29.484Z,99.90
2019-05-15T00:23:50.178Z,99.90
2019-05-15T00:32:28.283Z,99.90
2019-05-15T00:43:58.446Z,99.90
2019-05-15T00:47:02.743Z,99.90
2019-05-15T00:50:08.918Z,99.90
2019-05-15T00:53:13.380Z,99.90
2019-05-15T00:56:19.483Z,99.90
2019-05-15T00:59:29.361Z,99.90
2019-05-15T01:02:30.449Z,99.90
2019-05-15T01:05:33.765Z,99.90
2019-05-15T01:08:39.073Z,99.90
2019-05-15T01:11:43.109Z,99.90
2019-05-15T01:14:45.994Z,99.90
2019-05-15T01:17:50.833Z,99.90
2019-05-15T01:20:53.842Z,99.90
2019-05-15T01:23:58.944Z,99.90
2019-05-15T01:27:02.619Z,99.90
2019-05-15T01:30:08.976Z,99.90
2019-05-15T01:33:14.434Z,99.90
2019-05-15T01:36:19.467Z,99.90
2019-05-15T01:39:22.368Z,99.90
2019-05-15T01:42:27.863Z,99.90
2019-05-15T01:45:33.318Z,99.90
2019-05-15T01:48:38.799Z,99.90
2019-05-15T01:51:43.287Z,99.90
2019-05-15T01:54:48.910Z,99.90
2019-05-15T01:57:52.377Z,99.90
2019-05-15T02:00:58.958Z,99.90
2019-05-15T02:04:02.407Z,99.90
2019-05-15T02:07:08.393Z,99.90
2019-05-15T02:10:14.225Z,99.90
2019-05-15T02:13:18.771Z,99.90
2019-05-15T02:16:23.548Z,99.90
2019-05-15T02:19:28.583Z,99.90
2019-05-15T02:22:33.092Z,99.90
2019-05-15T02:25:38.739Z,99.90
2019-05-15T02:28:44.688Z,99.90
2019-05-15T02:31:50.373Z,99.90
2019-05-15T02:34:53.305Z,99.90
2019-05-15T02:37:59.557Z,99.90
2019-05-15T02:41:02.848Z,99.90
2019-05-15T02:44:10.654Z,99.90
2019-05-15T02:47:13.018Z,99.90
2019-05-15T02:50:20.363Z,99.90
2019-05-15T02:53:24.470Z,99.90
2019-05-15T02:56:30.147Z,99.90
2019-05-15T02:59:39.584Z,99.90
2019-05-15T03:02:41.958Z,99.90
2019-05-15T03:05:49.641Z,99.90
2019-05-15T03:08:54.837Z,99.90
2019-05-15T03:11:58.698Z,99.90
2019-05-15T03:15:03.615Z,99.90
2019-05-15T03:18:09.671Z,99.90
2019-05-15T03:21:12.876Z,99.90
2019-05-15T03:24:19.450Z,99.90
2019-05-15T03:27:23.830Z,99.90
2019-05-15T03:30:31.890Z,99.90
2019-05-15T03:33:36.329Z,99.90
2019-05-15T03:36:44.441Z,99.90
2019-05-15T03:39:46.998Z,99.90
2019-05-15T03:42:49.612Z,99.90
2019-05-15T03:45:53.102Z,99.90
2019-05-15T03:48:56.334Z,99.90
2019-05-15T03:52:00.208Z,99.90
2019-05-15T03:55:05.533Z,99.90
2019-05-15T03:58:10.688Z,99.90
2019-05-15T04:01:30.018Z,99.90
2019-05-15T04:04:20.904Z,99.90
2019-05-15T04:07:25.292Z,99.90
2019-05-15T04:10:28.968Z,99.90
2019-05-15T04:13:32.249Z,99.90
2019-05-15T04:16:38.756Z,99.90
2019-05-15T04:19:40.944Z,99.90
2019-05-15T04:22:44.066Z,99.90
2019-05-15T04:25:51.127Z,99.90
2019-05-15T04:29:00.138Z,99.90
2019-05-15T04:32:05.932Z,99.90
2019-05-15T04:35:09.464Z,99.90
2019-05-15T04:38:19.605Z,99.90
2019-05-15T04:41:21.638Z,99.90
2019-05-15T04:44:24.761Z,99.90
2019-05-15T04:47:30.287Z,99.90
2019-05-15T04:50:33.066Z,99.90
2019-05-15T04:53:39.487Z,99.90
2019-05-15T04:56:42.376Z,99.90
2019-05-15T04:59:45.444Z,99.90
2019-05-15T05:02:49.700Z,99.90
2019-05-15T05:05:53.244Z,99.90
2019-05-15T05:08:59.729Z,99.90
2019-05-15T05:12:04.541Z,99.90
2019-05-15T05:15:08.574Z,99.90
2019-05-15T05:18:13.844Z,99.90
2019-05-15T05:21:18.408Z,99.90
2019-05-15T05:24:23.761Z,99.90
2019-05-15T05:27:28.843Z,99.90
2019-05-15T05:30:34.756Z,99.90
2019-05-15T05:33:39.477Z,99.90
2019-05-15T05:36:43.972Z,99.90
2019-05-15T05:39:48.776Z,99.90
2019-05-15T05:42:54.534Z,99.90
2019-05-15T05:45:58.617Z,99.90
2019-05-15T05:49:02.940Z,99.90
2019-05-15T05:52:08.394Z,99.90
2019-05-15T05:55:12.220Z,99.90
2019-05-15T05:58:19.618Z,99.90
2019-05-15T06:01:22.911Z,99.90
2019-05-15T06:04:27.980Z,99.90
2019-05-15T06:07:35.342Z,99.90
2019-05-15T06:10:38.653Z,99.90
2019-05-15T06:13:43.678Z,99.90
2019-05-15T06:16:49.352Z,99.90
2019-05-15T06:19:55.257Z,99.90
2019-05-15T06:22:59.108Z,99.90
2019-05-15T06:26:03.113Z,99.90
2019-05-15T06:29:08.849Z,99.90
2019-05-15T06:32:13.591Z,99.90
2019-05-15T06:35:19.364Z,99.90
2019-05-15T06:38:24.109Z,99.90
2019-05-15T06:41:28.661Z,99.90
2019-05-15T06:44:33.725Z,99.90
2019-05-15T06:47:39.539Z,99.90
2019-05-15T06:50:45.648Z,99.90
2019-05-15T06:53:51.910Z,99.90
2019-05-15T06:56:54.662Z,99.90
2019-05-15T06:59:57.995Z,99.90
2019-05-15T07:03:16.773Z,99.90
2019-05-15T07:06:09.465Z,99.90
2019-05-15T07:09:13.650Z,99.90
2019-05-15T07:12:19.403Z,99.90
2019-05-15T07:15:27.857Z,99.90
2019-05-15T07:18:31.904Z,99.90
2019-05-15T07:21:38.737Z,99.90
2019-05-15T07:24:44.672Z,99.90
2019-05-15T07:27:59.743Z,99.90
2019-05-15T07:31:03.789Z,99.90
2019-05-15T07:34:15.369Z,99.90
2019-05-15T07:37:20.409Z,99.90
2019-05-15T07:40:28.870Z,99.90
2019-05-15T07:43:31.036Z,99.90
2019-05-15T07:46:35.169Z,99.90
2019-05-15T07:50:38.921Z,99.60
2019-05-15T07:53:45.085Z,98.80
2019-05-15T07:56:49.858Z,97.60
2019-05-15T07:59:54.668Z,97.50
2019-05-15T08:02:58.763Z,96.90
2019-05-15T08:06:03.988Z,97.40
2019-05-15T08:09:08.605Z,96.60
2019-05-15T08:12:12.021Z,95.60
2019-05-15T08:15:18.335Z,96.90
2019-05-15T08:18:22.912Z,96.20
2019-05-15T08:21:29.073Z,95.30
2019-05-15T08:24:33.239Z,95.40
2019-05-15T08:27:38.275Z,94.60
2019-05-15T08:30:44.697Z,94.40
2019-05-15T08:33:50.336Z,94.90
2019-05-15T08:36:53.625Z,95.30
2019-05-15T08:39:59.411Z,95.40
2019-05-15T08:43:04.357Z,94.90
2019-05-15T08:46:08.582Z,93.80
2019-05-15T08:49:12.947Z,93.40
2019-05-15T08:52:19.085Z,93.10
2019-05-15T08:55:23.033Z,91.60
2019-05-15T08:58:25.785Z,88.90
2019-05-15T09:01:28.899Z,88.50
2019-05-15T09:04:35.040Z,85.00
2019-05-15T09:07:38.496Z,84.70
2019-05-15T09:10:43.272Z,86.40
2019-05-15T09:13:45.999Z,84.60
2019-05-15T09:16:49.107Z,85.30
2019-05-15T09:19:56.123Z,86.20
2019-05-15T09:23:00.688Z,87.30
2019-05-15T09:26:03.657Z,87.10
2019-05-15T09:29:09.546Z,84.70
2019-05-15T09:32:14.110Z,87.20
2019-05-15T09:35:22.322Z,86.20
2019-05-15T09:38:28.879Z,87.20
2019-05-15T09:41:33.037Z,87.10
2019-05-15T09:44:39.180Z,88.20
2019-05-15T09:47:43.098Z,90.30
2019-05-15T09:50:49.371Z,90.10
2019-05-15T09:53:53.391Z,90.50
2019-05-15T09:56:58.625Z,90.10
2019-05-15T10:00:05.040Z,89.80
2019-05-15T10:03:09.682Z,89.80
2019-05-15T10:06:13.709Z,90.40
2019-05-15T10:09:19.682Z,90.50
2019-05-15T10:12:25.458Z,89.60
2019-05-15T10:15:29.505Z,89.80
2019-05-15T10:18:34.289Z,90.00
2019-05-15T10:30:49.647Z,90.50
2019-05-15T10:33:58.103Z,89.60
2019-05-15T10:37:00.578Z,90.20
2019-05-15T10:40:05.555Z,89.30
2019-05-15T10:43:10.577Z,87.70
2019-05-15T10:46:13.854Z,87.80
2019-05-15T10:49:18.825Z,88.30
2019-05-15T10:52:22.889Z,85.90
2019-05-15T10:55:28.933Z,85.00
2019-05-15T10:58:33.830Z,84.60
2019-05-15T11:01:41.861Z,83.40
2019-05-15T11:04:48.592Z,82.20
2019-05-15T11:07:53.971Z,83.50
2019-05-15T11:10:59.516Z,81.70
2019-05-15T11:14:14.721Z,79.90
2019-05-15T11:17:20.601Z,80.60
2019-05-15T11:20:24.645Z,78.10
2019-05-15T11:23:29.319Z,78.50
2019-05-15T11:26:33.861Z,77.50
2019-05-15T11:29:38.239Z,78.70
2019-05-15T11:32:42.326Z,80.90
2019-05-15T11:36:00.154Z,80.90
2019-05-15T11:38:55.449Z,81.20
2019-05-15T11:42:00.055Z,81.40
2019-05-15T11:45:03.141Z,81.70
2019-05-15T11:48:09.119Z,82.70
2019-05-15T11:51:12.909Z,81.70
2019-05-15T11:54:15.801Z,81.50
2019-05-15T11:57:20.573Z,80.10
2019-05-15T12:00:27.056Z,78.50
2019-05-15T12:03:31.260Z,76.90
2019-05-15T12:06:38.524Z,75.90
2019-05-15T12:09:43.402Z,74.90
2019-05-15T12:12:49.670Z,77.30
2019-05-15T12:15:55.873Z,78.30
2019-05-15T12:22:08.276Z,79.70
2019-05-15T12:25:13.175Z,79.70
2019-05-15T12:28:18.245Z,79.80
2019-05-15T12:31:24.763Z,81.10
2019-05-15T12:34:29.070Z,81.80
2019-05-15T12:37:33.718Z,80.90
2019-05-15T13:02:21.643Z,83.40
2019-05-15T13:14:38.735Z,85.10
2019-05-15T13:17:40.949Z,86.50
2019-05-15T13:20:45.702Z,87.50
2019-05-15T13:23:48.749Z,88.40
2019-05-15T13:26:52.793Z,88.00
2019-05-15T13:29:58.073Z,88.40
2019-05-15T13:33:04.544Z,88.80
2019-05-15T13:36:09.645Z,88.70
2019-05-15T13:39:18.229Z,88.10
2019-05-15T13:42:22.077Z,88.00
2019-05-15T13:45:28.964Z,87.60
2019-05-15T13:48:51.247Z,87.90
2019-05-15T13:51:55.002Z,88.10
2019-05-15T13:54:57.898Z,89.70
2019-05-15T13:58:02.446Z,90.20
2019-05-15T14:01:09.428Z,90.50
2019-05-15T14:04:12.650Z,90.20
2019-05-15T14:07:19.260Z,90.40
2019-05-15T14:10:23.716Z,90.40
2019-05-15T14:13:28.688Z,90.40
2019-05-15T14:16:34.401Z,90.90
2019-05-15T14:19:38.683Z,91.30
2019-05-15T14:22:43.252Z,91.60
2019-05-15T14:25:48.164Z,91.60
2019-05-15T14:28:52.729Z,91.50
2019-05-15T14:31:58.491Z,91.80
2019-05-15T14:35:01.348Z,91.80
2019-05-15T14:38:09.348Z,92.10
2019-05-15T14:41:14.175Z,92.30
2019-05-15T14:44:21.559Z,92.50
2019-05-15T14:47:26.367Z,92.80
2019-05-15T14:50:29.906Z,93.00
2019-05-15T14:53:35.548Z,92.90
2019-05-15T14:56:38.521Z,92.90
2019-05-15T14:59:43.013Z,93.00
2019-05-15T15:02:49.436Z,93.30
2019-05-15T15:05:53.610Z,93.70
2019-05-15T15:08:59.102Z,93.50
2019-05-15T15:12:02.689Z,93.80
2019-05-15T15:15:10.712Z,93.80
2019-05-15T15:18:15.050Z,93.60
2019-05-15T15:21:22.893Z,94.00
2019-05-15T15:24:26.449Z,94.60
2019-05-15T15:27:31.797Z,95.60
2019-05-15T15:30:38.520Z,96.30
2019-05-15T15:33:42.485Z,96.40
2019-05-15T15:36:45.289Z,97.20
2019-05-15T15:39:48.282Z,97.90
2019-05-15T15:42:51.373Z,98.10
2019-05-15T15:45:58.070Z,99.10
2019-05-15T15:49:02.745Z,99.40
2019-05-15T15:52:08.787Z,99.90
2019-05-15T15:55:13.813Z,99.90
2019-05-15T15:58:20.009Z,99.90
2019-05-15T16:01:27.676Z,99.90
2019-05-15T16:04:30.709Z,99.90
2019-05-15T16:07:37.803Z,99.90
2019-05-15T16:10:40.489Z,99.90
2019-05-15T16:13:46.227Z,99.90
2019-05-15T16:16:48.618Z,99.90
2019-05-15T16:19:51.480Z,99.90
2019-05-15T16:22:54.505Z,99.90
2019-05-15T16:26:00.987Z,99.90
2019-05-15T16:29:04.053Z,99.90
2019-05-15T16:32:08.731Z,99.90
2019-05-15T16:35:11.675Z,99.90
2019-05-15T16:38:14.433Z,99.90
2019-05-15T16:41:18.654Z,99.90
2019-05-15T16:44:21.563Z,99.90
2019-05-15T16:47:25.316Z,99.90
2019-05-15T16:50:28.745Z,99.90
2019-05-15T16:53:32.748Z,99.90
2019-05-15T16:56:36.545Z,99.90
2019-05-15T16:59:40.128Z,99.90
2019-05-15T17:02:44.964Z,99.90
2019-05-15T17:05:48.045Z,99.90
2019-05-15T17:08:50.977Z,99.90
2019-05-15T17:11:53.836Z,99.90
2019-05-15T17:14:58.435Z,99.90
2019-05-15T17:18:03.076Z,99.90
2019-05-15T17:21:09.538Z,99.90
2019-05-15T17:24:10.556Z,99.90
2019-05-15T17:27:14.437Z,99.90
2019-05-15T17:30:18.354Z,99.90
2019-05-15T17:33:22.737Z,99.90
2019-05-15T17:36:31.886Z,99.90
2019-05-15T17:39:37.710Z,99.90
2019-05-15T17:42:38.850Z,99.90
2019-05-15T17:45:41.959Z,99.90
2019-05-15T17:48:55.872Z,99.90
2019-05-15T17:51:55.386Z,99.90
2019-05-15T17:54:59.422Z,99.90
2019-05-15T17:58:03.765Z,99.90
2019-05-15T18:01:08.781Z,99.90
2019-05-15T18:04:13.419Z,99.90
2019-05-15T18:07:16.572Z,99.90
2019-05-15T18:10:20.393Z,99.90
2019-05-15T18:13:23.229Z,99.90
2019-05-15T18:16:28.173Z,99.90
2019-05-15T18:19:34.924Z,99.90
2019-05-15T18:22:38.238Z,99.90
2019-05-15T18:25:42.564Z,99.90
2019-05-15T18:28:45.941Z,99.90
2019-05-15T18:31:50.109Z,99.90
2019-05-15T18:34:53.908Z,99.90
2019-05-15T18:37:59.270Z,99.90
2019-05-15T18:41:03.897Z,99.90
2019-05-15T18:44:07.717Z,99.90
2019-05-15T18:47:11.657Z,99.90
2019-05-15T18:50:16.500Z,99.90
2019-05-15T18:53:19.442Z,99.90
2019-05-15T18:56:22.281Z,99.90
2019-05-15T18:59:27.023Z,99.90
2019-05-15T19:02:31.184Z,99.90
2019-05-15T19:05:35.917Z,99.90
2019-05-15T19:08:40.605Z,99.90
2019-05-15T19:11:43.438Z,99.90
2019-05-15T19:14:49.478Z,99.90
2019-05-15T19:17:52.649Z,99.90
2019-05-15T19:20:58.610Z,99.90
2019-05-15T19:24:02.854Z,99.90
2019-05-15T19:27:07.873Z,99.90
2019-05-15T19:30:12.256Z,99.90
2019-05-15T19:33:26.476Z,99.90
2019-05-15T19:36:21.866Z,99.90
2019-05-15T19:39:27.974Z,99.90
2019-05-15T19:42:32.204Z,99.90
2019-05-15T19:45:36.145Z,99.90
2019-05-15T19:48:41.000Z,99.90
2019-05-15T19:51:43.940Z,99.90
2019-05-15T19:54:48.638Z,99.90
2019-05-15T19:57:53.078Z,99.90
2019-05-15T20:00:56.018Z,99.90
2019-05-15T20:03:58.943Z,99.90
2019-05-15T20:07:01.880Z,99.90
2019-05-15T20:10:05.871Z,99.90
2019-05-15T20:13:11.772Z,99.90
2019-05-15T20:16:14.749Z,99.90
2019-05-15T20:19:18.751Z,99.90
2019-05-15T20:22:22.792Z,99.90
2019-05-15T20:25:28.042Z,99.90
2019-05-15T20:28:32.469Z,99.90
2019-05-15T20:31:38.399Z,99.90
2019-05-15T20:34:41.064Z,99.90
2019-05-15T20:37:45.312Z,99.90
2019-05-15T20:40:48.768Z,99.90
2019-05-15T20:43:52.916Z,99.90
2019-05-15T20:46:55.825Z,99.90
2019-05-15T20:49:58.973Z,99.90
2019-05-15T20:53:06.441Z,99.90
2019-05-15T20:56:09.365Z,99.90
2019-05-15T20:59:12.292Z,99.90
2019-05-15T21:02:18.591Z,99.90
2019-05-15T21:05:23.417Z,99.90
2019-05-15T21:08:28.852Z,99.90
2019-05-15T21:11:31.964Z,99.90
2019-05-15T21:14:40.024Z,99.90
2019-05-15T21:17:54.404Z,99.90
2019-05-15T21:20:50.085Z,99.90
2019-05-15T21:23:54.648Z,99.90
2019-05-15T21:26:58.124Z,99.90
2019-05-15T21:30:01.068Z,99.90
2019-05-15T21:33:05.213Z,99.90
2019-05-15T21:36:09.081Z,99.90
2019-05-15T21:39:15.946Z,99.90
2019-05-15T21:42:18.744Z,99.90
2019-05-15T21:45:21.628Z,99.90
2019-05-15T21:48:24.476Z,99.90
2019-05-15T21:51:29.383Z,99.90
2019-05-15T21:54:34.031Z,99.90
2019-05-15T21:57:40.007Z,99.90
2019-05-15T22:00:45.345Z,99.90
2019-05-15T22:03:51.444Z,99.90
2019-05-15T22:06:54.441Z,99.90
2019-05-15T22:09:57.257Z,99.90
2019-05-15T22:13:00.426Z,99.90
2019-05-15T22:16:05.193Z,99.90
2019-05-15T22:19:10.636Z,99.90
2019-05-15T22:22:13.697Z,99.90
2019-05-15T22:25:19.023Z,99.90
2019-05-15T22:28:22.032Z,99.90
2019-05-15T22:31:27.697Z,99.90
2019-05-15T22:34:33.326Z,99.90
2019-05-15T22:37:38.789Z,99.90
2019-05-15T22:40:42.896Z,99.90
2019-05-15T22:43:45.842Z,99.90
2019-05-15T22:46:49.725Z,99.90
2019-05-15T22:49:53.456Z,99.90
2019-05-15T22:52:58.800Z,99.90
2019-05-15T22:56:02.309Z,99.90
2019-05-15T22:59:08.405Z,99.90
2019-05-15T23:02:13.629Z,99.90
2019-05-15T23:05:25.059Z,99.90
2019-05-15T23:08:21.455Z,99.90
2019-05-15T23:11:24.729Z,99.90
2019-05-15T23:14:28.863Z,99.90
2019-05-15T23:17:32.684Z,99.90
2019-05-15T23:20:38.805Z,99.90
2019-05-15T23:23:43.493Z,99.90
2019-05-15T23:26:47.984Z,99.90
2019-05-15T23:29:53.020Z,99.90
2019-05-15T23:32:58.035Z,99.90
2019-05-15T23:36:02.372Z,99.90
2019-05-15T23:39:08.815Z,99.90
2019-05-15T23:42:13.380Z,99.90
2019-05-15T23:45:18.237Z,99.90
2019-05-15T23:48:24.392Z,99.90
2019-05-15T23:51:27.908Z,99.90
2019-05-15T23:54:30.886Z,99.90
2019-05-15T23:57:35.462Z,99.90
